sensor_id;sensor_type;location;lat;lon;timestamp;temperature;humidity
26655;DHT22;14278;50.784;4.630;2022-10-15T00:01:37;16.00;99.90
26655;DHT22;14278;50.784;4.630;2022-10-15T00:04:03;16.10;99.90
26655;DHT22;14278;50.784;4.630;2022-10-15T00:06:29;16.20;99.90
26655;DHT22;14278;50.784;4.630;2022-10-15T00:08:55;16.00;99.90
26655;DHT22;14278;50.784;4.630;2022-10-15T00:11:24;16.30;99.90
26655;DHT22;14278;50.784;4.630;2022-10-15T00:13:52;16.40;99.90
26655;DHT22;14278;50.784;4.630;2022-10-15T00:16:20;16.10;99.90
26655;DHT22;14278;50.784;4.630;2022-10-15T00:18:46;16.00;99.90
26655;DHT22;14278;50.784;4.630;2022-10-15T00:21:14;16.10;99.90
26655;DHT22;14278;50.784;4.630;2022-10-15T00:23:41;15.90;99.90
26655;DHT22;14278;50.784;4.630;2022-10-15T00:26:11;15.90;99.90
26655;DHT22;14278;50.784;4.630;2022-10-15T00:28:37;16.20;99.90
26655;DHT22;14278;50.784;4.630;2022-10-15T00:31:06;16.10;99.90
26655;DHT22;14278;50.784;4.630;2022-10-15T00:33:33;15.90;99.90
26655;DHT22;14278;50.784;4.630;2022-10-15T00:36:04;16.10;99.90
26655;DHT22;14278;50.784;4.630;2022-10-15T00:38:32;15.80;99.90
26655;DHT22;14278;50.784;4.630;2022-10-15T00:40:58;15.70;99.90
26655;DHT22;14278;50.784;4.630;2022-10-15T00:46:37;15.90;99.90
26655;DHT22;14278;50.784;4.630;2022-10-15T00:52:09;15.90;99.90
26655;DHT22;14278;50.784;4.630;2022-10-15T00:54:41;16.10;99.90
26655;DHT22;14278;50.784;4.630;2022-10-15T00:57:09;16.10;99.90
26655;DHT22;14278;50.784;4.630;2022-10-15T00:59:39;16.00;99.90
26655;DHT22;14278;50.784;4.630;2022-10-15T01:02:07;16.10;99.90
26655;DHT22;14278;50.784;4.630;2022-10-15T01:04:33;15.90;99.90
26655;DHT22;14278;50.784;4.630;2022-10-15T01:07:00;15.80;99.90
26655;DHT22;14278;50.784;4.630;2022-10-15T01:09:26;16.00;99.90
26655;DHT22;14278;50.784;4.630;2022-10-15T01:11:54;16.10;99.90
26655;DHT22;14278;50.784;4.630;2022-10-15T01:14:46;16.20;99.90
26655;DHT22;14278;50.784;4.630;2022-10-15T01:31:39;16.10;99.90
26655;DHT22;14278;50.784;4.630;2022-10-15T01:34:18;15.90;99.90
26655;DHT22;14278;50.784;4.630;2022-10-15T01:39:21;16.10;99.90
26655;DHT22;14278;50.784;4.630;2022-10-15T01:41:53;16.00;99.90
26655;DHT22;14278;50.784;4.630;2022-10-15T01:44:35;16.00;99.90
26655;DHT22;14278;50.784;4.630;2022-10-15T01:47:04;16.00;99.90
26655;DHT22;14278;50.784;4.630;2022-10-15T01:49:35;15.70;99.90
26655;DHT22;14278;50.784;4.630;2022-10-15T01:52:08;15.80;99.90
26655;DHT22;14278;50.784;4.630;2022-10-15T01:54:36;15.80;99.90
26655;DHT22;14278;50.784;4.630;2022-10-15T01:57:02;15.80;99.90
26655;DHT22;14278;50.784;4.630;2022-10-15T01:59:30;15.80;99.90
26655;DHT22;14278;50.784;4.630;2022-10-15T02:01:57;15.80;99.90
26655;DHT22;14278;50.784;4.630;2022-10-15T02:04:26;16.00;99.90
26655;DHT22;14278;50.784;4.630;2022-10-15T02:09:46;15.90;99.90
26655;DHT22;14278;50.784;4.630;2022-10-15T02:12:30;15.80;99.90
26655;DHT22;14278;50.784;4.630;2022-10-15T02:15:10;15.70;99.90
26655;DHT22;14278;50.784;4.630;2022-10-15T02:17:41;16.00;99.90
26655;DHT22;14278;50.784;4.630;2022-10-15T02:20:17;16.00;99.90
26655;DHT22;14278;50.784;4.630;2022-10-15T02:22:54;15.80;99.90
26655;DHT22;14278;50.784;4.630;2022-10-15T02:25:22;15.70;99.90
26655;DHT22;14278;50.784;4.630;2022-10-15T02:27:50;15.70;99.90
26655;DHT22;14278;50.784;4.630;2022-10-15T02:30:19;15.80;99.90
26655;DHT22;14278;50.784;4.630;2022-10-15T02:32:51;15.70;99.90
26655;DHT22;14278;50.784;4.630;2022-10-15T02:35:17;15.70;99.90
26655;DHT22;14278;50.784;4.630;2022-10-15T02:37:48;15.80;99.90
26655;DHT22;14278;50.784;4.630;2022-10-15T02:40:15;15.80;99.90
26655;DHT22;14278;50.784;4.630;2022-10-15T02:42:42;15.90;99.90
26655;DHT22;14278;50.784;4.630;2022-10-15T02:45:08;15.90;99.90
26655;DHT22;14278;50.784;4.630;2022-10-15T02:47:34;15.80;99.90
26655;DHT22;14278;50.784;4.630;2022-10-15T02:49:59;15.80;99.90
26655;DHT22;14278;50.784;4.630;2022-10-15T02:52:25;15.80;99.90
26655;DHT22;14278;50.784;4.630;2022-10-15T02:54:52;16.00;99.90
26655;DHT22;14278;50.784;4.630;2022-10-15T02:57:18;15.90;99.90
26655;DHT22;14278;50.784;4.630;2022-10-15T02:59:43;15.90;99.90
26655;DHT22;14278;50.784;4.630;2022-10-15T03:02:09;15.80;99.90
26655;DHT22;14278;50.784;4.630;2022-10-15T03:04:35;16.00;99.90
26655;DHT22;14278;50.784;4.630;2022-10-15T03:07:01;15.80;99.90
26655;DHT22;14278;50.784;4.630;2022-10-15T03:09:27;15.90;99.90
26655;DHT22;14278;50.784;4.630;2022-10-15T03:11:53;16.00;99.90
26655;DHT22;14278;50.784;4.630;2022-10-15T03:14:19;15.90;99.90
26655;DHT22;14278;50.784;4.630;2022-10-15T03:16:44;15.90;99.90
26655;DHT22;14278;50.784;4.630;2022-10-15T03:19:11;16.00;99.90
26655;DHT22;14278;50.784;4.630;2022-10-15T03:21:37;15.90;99.90
26655;DHT22;14278;50.784;4.630;2022-10-15T03:24:03;15.80;99.90
26655;DHT22;14278;50.784;4.630;2022-10-15T03:26:28;15.80;99.90
26655;DHT22;14278;50.784;4.630;2022-10-15T03:28:54;15.70;99.90
26655;DHT22;14278;50.784;4.630;2022-10-15T03:31:21;15.80;99.90
26655;DHT22;14278;50.784;4.630;2022-10-15T03:33:47;15.60;99.90
26655;DHT22;14278;50.784;4.630;2022-10-15T03:36:12;15.80;99.90
26655;DHT22;14278;50.784;4.630;2022-10-15T03:38:38;15.60;99.90
26655;DHT22;14278;50.784;4.630;2022-10-15T03:41:04;15.70;99.90
26655;DHT22;14278;50.784;4.630;2022-10-15T03:43:31;15.90;99.90
26655;DHT22;14278;50.784;4.630;2022-10-15T03:46:01;15.80;99.90
26655;DHT22;14278;50.784;4.630;2022-10-15T03:48:27;15.70;99.90
26655;DHT22;14278;50.784;4.630;2022-10-15T03:50:53;15.80;99.90
26655;DHT22;14278;50.784;4.630;2022-10-15T03:53:19;15.50;99.90
26655;DHT22;14278;50.784;4.630;2022-10-15T03:55:46;15.60;99.90
26655;DHT22;14278;50.784;4.630;2022-10-15T03:58:12;15.50;99.90
26655;DHT22;14278;50.784;4.630;2022-10-15T04:00:40;15.60;99.90
26655;DHT22;14278;50.784;4.630;2022-10-15T04:03:07;15.40;99.90
26655;DHT22;14278;50.784;4.630;2022-10-15T04:05:32;15.30;99.90
26655;DHT22;14278;50.784;4.630;2022-10-15T04:08:00;15.40;99.90
26655;DHT22;14278;50.784;4.630;2022-10-15T04:10:25;15.30;99.90
26655;DHT22;14278;50.784;4.630;2022-10-15T04:12:51;15.10;99.90
26655;DHT22;14278;50.784;4.630;2022-10-15T04:15:17;15.10;99.90
26655;DHT22;14278;50.784;4.630;2022-10-15T04:17:43;15.10;99.90
26655;DHT22;14278;50.784;4.630;2022-10-15T04:20:10;15.00;99.90
26655;DHT22;14278;50.784;4.630;2022-10-15T04:22:36;15.00;99.90
26655;DHT22;14278;50.784;4.630;2022-10-15T04:25:02;15.00;99.90
26655;DHT22;14278;50.784;4.630;2022-10-15T04:27:28;15.10;99.90
26655;DHT22;14278;50.784;4.630;2022-10-15T04:29:54;15.10;99.90
26655;DHT22;14278;50.784;4.630;2022-10-15T04:32:21;15.00;99.90
26655;DHT22;14278;50.784;4.630;2022-10-15T04:34:47;14.90;99.90
26655;DHT22;14278;50.784;4.630;2022-10-15T04:37:16;14.80;99.90
26655;DHT22;14278;50.784;4.630;2022-10-15T04:39:41;14.80;99.90
26655;DHT22;14278;50.784;4.630;2022-10-15T04:42:07;14.80;99.90
26655;DHT22;14278;50.784;4.630;2022-10-15T04:44:34;14.70;99.90
26655;DHT22;14278;50.784;4.630;2022-10-15T04:47:00;14.80;99.90
26655;DHT22;14278;50.784;4.630;2022-10-15T04:49:26;14.90;99.90
26655;DHT22;14278;50.784;4.630;2022-10-15T04:51:51;14.90;99.90
26655;DHT22;14278;50.784;4.630;2022-10-15T04:54:17;14.90;99.90
26655;DHT22;14278;50.784;4.630;2022-10-15T04:56:44;14.90;99.90
26655;DHT22;14278;50.784;4.630;2022-10-15T04:59:10;14.90;99.90
26655;DHT22;14278;50.784;4.630;2022-10-15T05:01:36;15.00;99.90
26655;DHT22;14278;50.784;4.630;2022-10-15T05:04:02;14.90;99.90
26655;DHT22;14278;50.784;4.630;2022-10-15T05:06:28;14.90;99.90
26655;DHT22;14278;50.784;4.630;2022-10-15T05:08:55;14.90;99.90
26655;DHT22;14278;50.784;4.630;2022-10-15T05:11:25;15.10;99.90
26655;DHT22;14278;50.784;4.630;2022-10-15T05:13:51;15.20;99.90
26655;DHT22;14278;50.784;4.630;2022-10-15T05:16:21;15.00;99.90
26655;DHT22;14278;50.784;4.630;2022-10-15T05:18:49;15.10;99.90
26655;DHT22;14278;50.784;4.630;2022-10-15T05:21:18;15.10;99.90
26655;DHT22;14278;50.784;4.630;2022-10-15T05:23:44;15.20;99.90
26655;DHT22;14278;50.784;4.630;2022-10-15T05:26:16;15.10;99.90
26655;DHT22;14278;50.784;4.630;2022-10-15T05:28:41;14.90;99.90
26655;DHT22;14278;50.784;4.630;2022-10-15T05:31:13;14.80;99.90
26655;DHT22;14278;50.784;4.630;2022-10-15T05:33:41;14.90;99.90
26655;DHT22;14278;50.784;4.630;2022-10-15T05:36:31;15.10;99.90
26655;DHT22;14278;50.784;4.630;2022-10-15T05:39:01;15.10;99.90
26655;DHT22;14278;50.784;4.630;2022-10-15T05:41:28;15.00;99.90
26655;DHT22;14278;50.784;4.630;2022-10-15T05:43:56;15.00;99.90
26655;DHT22;14278;50.784;4.630;2022-10-15T05:46:23;14.90;99.90
26655;DHT22;14278;50.784;4.630;2022-10-15T05:48:53;14.70;99.90
26655;DHT22;14278;50.784;4.630;2022-10-15T05:51:20;14.70;99.90
26655;DHT22;14278;50.784;4.630;2022-10-15T05:53:46;14.70;99.90
26655;DHT22;14278;50.784;4.630;2022-10-15T05:56:13;14.90;99.90
26655;DHT22;14278;50.784;4.630;2022-10-15T05:58:40;14.90;99.90
26655;DHT22;14278;50.784;4.630;2022-10-15T06:01:10;15.10;99.90
26655;DHT22;14278;50.784;4.630;2022-10-15T06:03:36;15.20;99.90
26655;DHT22;14278;50.784;4.630;2022-10-15T06:06:02;15.30;99.90
26655;DHT22;14278;50.784;4.630;2022-10-15T06:08:29;15.30;99.90
26655;DHT22;14278;50.784;4.630;2022-10-15T06:11:00;15.30;99.90
26655;DHT22;14278;50.784;4.630;2022-10-15T06:13:26;15.50;99.90
26655;DHT22;14278;50.784;4.630;2022-10-15T06:15:51;15.50;99.90
26655;DHT22;14278;50.784;4.630;2022-10-15T06:18:17;15.30;99.90
26655;DHT22;14278;50.784;4.630;2022-10-15T06:20:43;15.30;99.90
26655;DHT22;14278;50.784;4.630;2022-10-15T06:23:10;15.40;99.90
26655;DHT22;14278;50.784;4.630;2022-10-15T06:25:36;15.50;99.90
26655;DHT22;14278;50.784;4.630;2022-10-15T06:28:05;15.50;99.90
26655;DHT22;14278;50.784;4.630;2022-10-15T06:30:31;15.40;99.90
26655;DHT22;14278;50.784;4.630;2022-10-15T06:32:58;15.40;99.90
26655;DHT22;14278;50.784;4.630;2022-10-15T06:35:24;15.50;99.90
26655;DHT22;14278;50.784;4.630;2022-10-15T06:37:51;15.50;99.90
26655;DHT22;14278;50.784;4.630;2022-10-15T06:40:17;15.40;99.90
26655;DHT22;14278;50.784;4.630;2022-10-15T06:42:43;15.30;99.90
26655;DHT22;14278;50.784;4.630;2022-10-15T06:45:10;15.30;99.90
26655;DHT22;14278;50.784;4.630;2022-10-15T06:47:36;15.30;99.90
26655;DHT22;14278;50.784;4.630;2022-10-15T06:50:03;15.30;99.90
26655;DHT22;14278;50.784;4.630;2022-10-15T06:52:30;15.60;99.90
26655;DHT22;14278;50.784;4.630;2022-10-15T06:54:56;15.70;99.90
26655;DHT22;14278;50.784;4.630;2022-10-15T06:57:23;15.90;99.90
26655;DHT22;14278;50.784;4.630;2022-10-15T06:59:50;16.10;99.90
26655;DHT22;14278;50.784;4.630;2022-10-15T07:02:16;16.20;99.90
26655;DHT22;14278;50.784;4.630;2022-10-15T07:04:46;16.20;99.90
26655;DHT22;14278;50.784;4.630;2022-10-15T07:07:12;16.20;99.90
26655;DHT22;14278;50.784;4.630;2022-10-15T07:09:39;16.30;99.90
26655;DHT22;14278;50.784;4.630;2022-10-15T07:12:05;16.30;99.90
26655;DHT22;14278;50.784;4.630;2022-10-15T07:14:31;16.20;99.90
26655;DHT22;14278;50.784;4.630;2022-10-15T07:16:57;16.30;99.90
26655;DHT22;14278;50.784;4.630;2022-10-15T07:19:24;16.30;99.90
26655;DHT22;14278;50.784;4.630;2022-10-15T07:21:50;16.20;99.90
26655;DHT22;14278;50.784;4.630;2022-10-15T07:24:16;16.00;99.90
26655;DHT22;14278;50.784;4.630;2022-10-15T07:26:42;16.00;99.90
26655;DHT22;14278;50.784;4.630;2022-10-15T07:29:09;16.30;99.90
26655;DHT22;14278;50.784;4.630;2022-10-15T07:31:35;16.50;99.90
26655;DHT22;14278;50.784;4.630;2022-10-15T07:34:04;16.70;99.90
26655;DHT22;14278;50.784;4.630;2022-10-15T07:36:32;16.60;99.90
26655;DHT22;14278;50.784;4.630;2022-10-15T07:39:00;16.50;99.90
26655;DHT22;14278;50.784;4.630;2022-10-15T07:41:29;16.30;99.90
26655;DHT22;14278;50.784;4.630;2022-10-15T07:43:55;16.40;99.90
26655;DHT22;14278;50.784;4.630;2022-10-15T07:46:24;16.50;99.90
26655;DHT22;14278;50.784;4.630;2022-10-15T07:48:56;16.50;99.90
26655;DHT22;14278;50.784;4.630;2022-10-15T07:51:23;16.60;99.90
26655;DHT22;14278;50.784;4.630;2022-10-15T07:53:48;16.50;99.90
26655;DHT22;14278;50.784;4.630;2022-10-15T07:56:15;16.60;99.90
26655;DHT22;14278;50.784;4.630;2022-10-15T07:58:41;16.50;99.90
26655;DHT22;14278;50.784;4.630;2022-10-15T08:01:09;16.60;99.90
26655;DHT22;14278;50.784;4.630;2022-10-15T08:03:36;16.60;99.90
26655;DHT22;14278;50.784;4.630;2022-10-15T08:06:04;16.70;99.90
26655;DHT22;14278;50.784;4.630;2022-10-15T08:08:30;16.50;99.90
26655;DHT22;14278;50.784;4.630;2022-10-15T08:11:02;16.50;99.90
26655;DHT22;14278;50.784;4.630;2022-10-15T08:13:28;16.50;99.90
26655;DHT22;14278;50.784;4.630;2022-10-15T08:15:57;16.70;99.90
26655;DHT22;14278;50.784;4.630;2022-10-15T08:18:22;16.60;99.90
26655;DHT22;14278;50.784;4.630;2022-10-15T08:20:48;16.70;99.90
26655;DHT22;14278;50.784;4.630;2022-10-15T08:23:15;16.70;99.90
26655;DHT22;14278;50.784;4.630;2022-10-15T08:25:41;16.50;99.90
26655;DHT22;14278;50.784;4.630;2022-10-15T08:28:08;16.50;99.90
26655;DHT22;14278;50.784;4.630;2022-10-15T08:30:36;16.50;99.90
26655;DHT22;14278;50.784;4.630;2022-10-15T08:33:02;16.60;99.90
26655;DHT22;14278;50.784;4.630;2022-10-15T08:35:29;16.70;99.90
26655;DHT22;14278;50.784;4.630;2022-10-15T08:38:00;16.60;99.90
26655;DHT22;14278;50.784;4.630;2022-10-15T08:40:26;16.70;99.90
26655;DHT22;14278;50.784;4.630;2022-10-15T08:42:53;16.70;99.90
26655;DHT22;14278;50.784;4.630;2022-10-15T08:45:40;16.90;99.90
26655;DHT22;14278;50.784;4.630;2022-10-15T08:48:20;16.80;99.90
26655;DHT22;14278;50.784;4.630;2022-10-15T08:50:49;16.70;99.90
26655;DHT22;14278;50.784;4.630;2022-10-15T08:53:20;16.80;99.90
26655;DHT22;14278;50.784;4.630;2022-10-15T08:55:48;16.60;99.90
26655;DHT22;14278;50.784;4.630;2022-10-15T08:58:40;17.00;99.90
26655;DHT22;14278;50.784;4.630;2022-10-15T09:01:24;17.10;99.90
26655;DHT22;14278;50.784;4.630;2022-10-15T09:04:15;17.10;99.90
26655;DHT22;14278;50.784;4.630;2022-10-15T09:06:46;17.00;99.90
26655;DHT22;14278;50.784;4.630;2022-10-15T09:09:33;17.00;99.90
26655;DHT22;14278;50.784;4.630;2022-10-15T09:14:45;17.30;99.90
26655;DHT22;14278;50.784;4.630;2022-10-15T09:17:24;17.50;99.90
26655;DHT22;14278;50.784;4.630;2022-10-15T09:19:54;17.50;99.90
26655;DHT22;14278;50.784;4.630;2022-10-15T09:22:27;17.50;99.90
26655;DHT22;14278;50.784;4.630;2022-10-15T09:24:54;17.50;99.90
26655;DHT22;14278;50.784;4.630;2022-10-15T09:30:04;17.60;99.90
26655;DHT22;14278;50.784;4.630;2022-10-15T09:32:45;17.60;99.90
26655;DHT22;14278;50.784;4.630;2022-10-15T09:35:21;17.60;99.90
26655;DHT22;14278;50.784;4.630;2022-10-15T09:38:08;17.70;99.90
26655;DHT22;14278;50.784;4.630;2022-10-15T09:43:08;17.40;99.90
26655;DHT22;14278;50.784;4.630;2022-10-15T09:45:34;17.30;99.90
26655;DHT22;14278;50.784;4.630;2022-10-15T09:48:05;17.20;99.90
26655;DHT22;14278;50.784;4.630;2022-10-15T09:50:43;17.30;99.90
26655;DHT22;14278;50.784;4.630;2022-10-15T09:53:26;17.60;99.90
26655;DHT22;14278;50.784;4.630;2022-10-15T09:56:18;17.50;99.90
26655;DHT22;14278;50.784;4.630;2022-10-15T09:58:56;17.50;99.90
26655;DHT22;14278;50.784;4.630;2022-10-15T10:01:23;17.50;99.90
26655;DHT22;14278;50.784;4.630;2022-10-15T10:04:07;17.60;99.90
26655;DHT22;14278;50.784;4.630;2022-10-15T10:06:45;17.60;99.90
26655;DHT22;14278;50.784;4.630;2022-10-15T10:09:20;17.50;99.90
26655;DHT22;14278;50.784;4.630;2022-10-15T10:11:53;17.60;99.90
26655;DHT22;14278;50.784;4.630;2022-10-15T10:14:39;17.70;99.90
26655;DHT22;14278;50.784;4.630;2022-10-15T10:17:29;17.90;99.90
26655;DHT22;14278;50.784;4.630;2022-10-15T10:20:24;18.30;99.90
26655;DHT22;14278;50.784;4.630;2022-10-15T10:25:41;18.60;99.90
26655;DHT22;14278;50.784;4.630;2022-10-15T10:30:47;19.10;99.90
26655;DHT22;14278;50.784;4.630;2022-10-15T10:33:17;19.00;99.90
26655;DHT22;14278;50.784;4.630;2022-10-15T10:35:47;19.10;99.90
26655;DHT22;14278;50.784;4.630;2022-10-15T10:38:34;19.00;99.90
26655;DHT22;14278;50.784;4.630;2022-10-15T10:41:09;19.10;99.90
26655;DHT22;14278;50.784;4.630;2022-10-15T10:43:37;19.30;99.90
26655;DHT22;14278;50.784;4.630;2022-10-15T10:48:44;19.30;99.90
26655;DHT22;14278;50.784;4.630;2022-10-15T10:51:11;19.60;99.90
26655;DHT22;14278;50.784;4.630;2022-10-15T10:53:59;19.20;99.90
26655;DHT22;14278;50.784;4.630;2022-10-15T10:56:37;19.20;99.90
26655;DHT22;14278;50.784;4.630;2022-10-15T10:59:26;19.50;99.90
26655;DHT22;14278;50.784;4.630;2022-10-15T11:01:53;19.50;99.90
26655;DHT22;14278;50.784;4.630;2022-10-15T11:04:30;19.50;99.90
26655;DHT22;14278;50.784;4.630;2022-10-15T11:12:54;19.60;99.90
26655;DHT22;14278;50.784;4.630;2022-10-15T11:18:21;19.90;99.90
26655;DHT22;14278;50.784;4.630;2022-10-15T11:24:15;19.80;99.90
26655;DHT22;14278;50.784;4.630;2022-10-15T11:45:15;18.10;99.90
26655;DHT22;14278;50.784;4.630;2022-10-15T11:50:31;18.20;99.90
26655;DHT22;14278;50.784;4.630;2022-10-15T11:56:13;18.10;99.90
26655;DHT22;14278;50.784;4.630;2022-10-15T11:58:44;17.90;99.90
26655;DHT22;14278;50.784;4.630;2022-10-15T12:01:28;17.90;99.90
26655;DHT22;14278;50.784;4.630;2022-10-15T12:04:02;17.90;99.90
26655;DHT22;14278;50.784;4.630;2022-10-15T12:06:33;17.60;99.90
26655;DHT22;14278;50.784;4.630;2022-10-15T12:09:02;17.60;99.90
26655;DHT22;14278;50.784;4.630;2022-10-15T12:14:26;17.50;99.90
26655;DHT22;14278;50.784;4.630;2022-10-15T12:22:36;17.80;99.90
26655;DHT22;14278;50.784;4.630;2022-10-15T12:25:03;17.90;99.90
26655;DHT22;14278;50.784;4.630;2022-10-15T12:27:36;17.90;99.90
26655;DHT22;14278;50.784;4.630;2022-10-15T12:32:48;17.80;99.90
26655;DHT22;14278;50.784;4.630;2022-10-15T12:37:41;18.30;99.90
26655;DHT22;14278;50.784;4.630;2022-10-15T12:42:53;18.50;99.90
26655;DHT22;14278;50.784;4.630;2022-10-15T12:45:22;18.50;99.90
26655;DHT22;14278;50.784;4.630;2022-10-15T12:50:24;18.90;99.90
26655;DHT22;14278;50.784;4.630;2022-10-15T12:52:50;19.00;99.90
26655;DHT22;14278;50.784;4.630;2022-10-15T12:55:35;18.90;99.90
26655;DHT22;14278;50.784;4.630;2022-10-15T12:58:02;18.80;99.90
26655;DHT22;14278;50.784;4.630;2022-10-15T13:00:30;19.00;99.90
26655;DHT22;14278;50.784;4.630;2022-10-15T13:03:07;19.40;99.90
26655;DHT22;14278;50.784;4.630;2022-10-15T13:05:35;19.40;99.90
26655;DHT22;14278;50.784;4.630;2022-10-15T13:08:04;19.10;99.90
26655;DHT22;14278;50.784;4.630;2022-10-15T13:10:47;18.70;99.90
26655;DHT22;14278;50.784;4.630;2022-10-15T13:13:20;18.70;99.90
26655;DHT22;14278;50.784;4.630;2022-10-15T13:15:55;18.70;99.90
26655;DHT22;14278;50.784;4.630;2022-10-15T13:18:24;18.70;99.90
26655;DHT22;14278;50.784;4.630;2022-10-15T13:20:50;19.00;99.90
26655;DHT22;14278;50.784;4.630;2022-10-15T13:23:25;19.10;99.90
26655;DHT22;14278;50.784;4.630;2022-10-15T13:26:09;19.00;99.90
26655;DHT22;14278;50.784;4.630;2022-10-15T13:28:37;18.80;99.90
26655;DHT22;14278;50.784;4.630;2022-10-15T13:31:14;18.70;99.90
26655;DHT22;14278;50.784;4.630;2022-10-15T13:33:43;18.80;99.90
26655;DHT22;14278;50.784;4.630;2022-10-15T13:36:24;18.80;99.90
26655;DHT22;14278;50.784;4.630;2022-10-15T13:38:59;18.70;99.90
26655;DHT22;14278;50.784;4.630;2022-10-15T13:41:28;18.90;99.90
26655;DHT22;14278;50.784;4.630;2022-10-15T13:43:55;18.80;99.90
26655;DHT22;14278;50.784;4.630;2022-10-15T13:46:25;18.70;99.90
26655;DHT22;14278;50.784;4.630;2022-10-15T13:48:56;18.80;99.90
26655;DHT22;14278;50.784;4.630;2022-10-15T13:51:22;19.20;99.90
26655;DHT22;14278;50.784;4.630;2022-10-15T13:53:51;19.00;99.90
26655;DHT22;14278;50.784;4.630;2022-10-15T13:56:24;19.00;99.90
26655;DHT22;14278;50.784;4.630;2022-10-15T13:58:50;18.80;99.90
26655;DHT22;14278;50.784;4.630;2022-10-15T14:01:18;18.80;99.90
26655;DHT22;14278;50.784;4.630;2022-10-15T14:03:55;18.80;99.90
26655;DHT22;14278;50.784;4.630;2022-10-15T14:06:26;18.70;99.90
26655;DHT22;14278;50.784;4.630;2022-10-15T14:08:58;18.80;99.90
26655;DHT22;14278;50.784;4.630;2022-10-15T14:11:24;19.00;99.90
26655;DHT22;14278;50.784;4.630;2022-10-15T14:13:53;19.10;99.90
26655;DHT22;14278;50.784;4.630;2022-10-15T14:16:32;18.70;99.90
26655;DHT22;14278;50.784;4.630;2022-10-15T14:21:31;18.90;99.90
26655;DHT22;14278;50.784;4.630;2022-10-15T14:24:11;18.80;99.90
26655;DHT22;14278;50.784;4.630;2022-10-15T14:26:39;18.80;99.90
26655;DHT22;14278;50.784;4.630;2022-10-15T14:29:05;19.00;99.90
26655;DHT22;14278;50.784;4.630;2022-10-15T14:31:39;19.00;99.90
26655;DHT22;14278;50.784;4.630;2022-10-15T14:36:53;19.20;99.90
26655;DHT22;14278;50.784;4.630;2022-10-15T14:41:57;19.10;99.90
26655;DHT22;14278;50.784;4.630;2022-10-15T14:44:24;19.20;99.90
26655;DHT22;14278;50.784;4.630;2022-10-15T14:46:58;19.50;99.90
26655;DHT22;14278;50.784;4.630;2022-10-15T14:49:29;19.30;99.90
26655;DHT22;14278;50.784;4.630;2022-10-15T14:52:09;19.30;99.90
26655;DHT22;14278;50.784;4.630;2022-10-15T14:54:43;19.50;99.90
26655;DHT22;14278;50.784;4.630;2022-10-15T14:57:19;19.50;99.90
26655;DHT22;14278;50.784;4.630;2022-10-15T14:59:46;19.30;99.90
26655;DHT22;14278;50.784;4.630;2022-10-15T15:02:14;19.30;99.90
26655;DHT22;14278;50.784;4.630;2022-10-15T15:04:44;19.20;99.90
26655;DHT22;14278;50.784;4.630;2022-10-15T15:07:19;18.80;99.90
26655;DHT22;14278;50.784;4.630;2022-10-15T15:09:49;18.90;99.90
26655;DHT22;14278;50.784;4.630;2022-10-15T15:12:18;19.00;99.90
26655;DHT22;14278;50.784;4.630;2022-10-15T15:14:45;18.90;99.90
26655;DHT22;14278;50.784;4.630;2022-10-15T15:17:16;18.80;99.90
26655;DHT22;14278;50.784;4.630;2022-10-15T15:19:46;18.70;99.90
26655;DHT22;14278;50.784;4.630;2022-10-15T15:22:20;18.50;99.90
26655;DHT22;14278;50.784;4.630;2022-10-15T15:24:48;18.50;99.90
26655;DHT22;14278;50.784;4.630;2022-10-15T15:27:26;18.40;99.90
26655;DHT22;14278;50.784;4.630;2022-10-15T15:29:55;18.40;99.90
26655;DHT22;14278;50.784;4.630;2022-10-15T15:32:23;18.20;99.90
26655;DHT22;14278;50.784;4.630;2022-10-15T15:34:50;18.20;99.90
26655;DHT22;14278;50.784;4.630;2022-10-15T15:37:21;18.40;99.90
26655;DHT22;14278;50.784;4.630;2022-10-15T15:39:48;18.30;99.90
26655;DHT22;14278;50.784;4.630;2022-10-15T15:42:19;18.30;99.90
26655;DHT22;14278;50.784;4.630;2022-10-15T15:44:46;18.20;99.90
26655;DHT22;14278;50.784;4.630;2022-10-15T15:47:12;18.20;99.90
26655;DHT22;14278;50.784;4.630;2022-10-15T15:49:39;18.20;99.90
26655;DHT22;14278;50.784;4.630;2022-10-15T15:52:07;18.00;99.90
26655;DHT22;14278;50.784;4.630;2022-10-15T15:54:34;18.00;99.90
26655;DHT22;14278;50.784;4.630;2022-10-15T15:57:01;17.80;99.90
26655;DHT22;14278;50.784;4.630;2022-10-15T15:59:26;17.90;99.90
26655;DHT22;14278;50.784;4.630;2022-10-15T16:01:53;17.60;99.90
26655;DHT22;14278;50.784;4.630;2022-10-15T16:04:19;17.60;99.90
26655;DHT22;14278;50.784;4.630;2022-10-15T16:06:45;17.60;99.90
26655;DHT22;14278;50.784;4.630;2022-10-15T16:09:16;17.80;99.90
26655;DHT22;14278;50.784;4.630;2022-10-15T16:11:45;17.80;99.90
26655;DHT22;14278;50.784;4.630;2022-10-15T16:14:11;17.60;99.90
26655;DHT22;14278;50.784;4.630;2022-10-15T16:16:37;17.50;99.90
26655;DHT22;14278;50.784;4.630;2022-10-15T16:19:03;17.40;99.90
26655;DHT22;14278;50.784;4.630;2022-10-15T16:21:31;17.20;99.90
26655;DHT22;14278;50.784;4.630;2022-10-15T16:23:57;17.20;99.90
26655;DHT22;14278;50.784;4.630;2022-10-15T16:26:23;17.30;99.90
26655;DHT22;14278;50.784;4.630;2022-10-15T16:28:49;17.20;99.90
26655;DHT22;14278;50.784;4.630;2022-10-15T16:31:17;17.20;99.90
26655;DHT22;14278;50.784;4.630;2022-10-15T16:33:44;17.10;99.90
26655;DHT22;14278;50.784;4.630;2022-10-15T16:36:10;17.10;99.90
26655;DHT22;14278;50.784;4.630;2022-10-15T16:38:38;17.00;99.90
26655;DHT22;14278;50.784;4.630;2022-10-15T16:41:05;17.00;99.90
26655;DHT22;14278;50.784;4.630;2022-10-15T16:43:32;16.80;99.90
26655;DHT22;14278;50.784;4.630;2022-10-15T16:45:59;16.80;99.90
26655;DHT22;14278;50.784;4.630;2022-10-15T16:48:26;16.90;99.90
26655;DHT22;14278;50.784;4.630;2022-10-15T16:51:15;16.70;99.90
26655;DHT22;14278;50.784;4.630;2022-10-15T16:53:42;16.70;99.90
26655;DHT22;14278;50.784;4.630;2022-10-15T16:56:12;16.70;99.90
26655;DHT22;14278;50.784;4.630;2022-10-15T16:58:39;16.40;99.90
26655;DHT22;14278;50.784;4.630;2022-10-15T17:01:08;16.40;99.90
26655;DHT22;14278;50.784;4.630;2022-10-15T17:03:36;16.50;99.90
26655;DHT22;14278;50.784;4.630;2022-10-15T17:06:05;16.40;99.90
26655;DHT22;14278;50.784;4.630;2022-10-15T17:08:49;16.20;99.90
26655;DHT22;14278;50.784;4.630;2022-10-15T17:11:27;16.20;99.90
26655;DHT22;14278;50.784;4.630;2022-10-15T17:13:56;16.20;99.90
26655;DHT22;14278;50.784;4.630;2022-10-15T17:16:28;16.00;99.90
26655;DHT22;14278;50.784;4.630;2022-10-15T17:18:55;16.10;99.90
26655;DHT22;14278;50.784;4.630;2022-10-15T17:21:23;16.10;99.90
26655;DHT22;14278;50.784;4.630;2022-10-15T17:23:54;15.90;99.90
26655;DHT22;14278;50.784;4.630;2022-10-15T17:26:23;16.00;99.90
26655;DHT22;14278;50.784;4.630;2022-10-15T17:28:50;16.00;99.90
26655;DHT22;14278;50.784;4.630;2022-10-15T17:31:22;16.20;99.90